Linda Moran — WDE4187 — position and weather

sailwx.info

Track history (hours):
 
Tides and Currents Weather Stations Pressure Air Temp Water Temp Dewpoint Dewpoint Depression Visibility Wind Speed Wind Dir Waves Ship Positions

Linda Moran

Owner: MORAN TOWING CORP., NEW CANAAN, CT. More information available from US FCC via Universal Licensing System and Coast Guard Vessel Documentation Center.

Last reported at 2017-Jan-17 06:13 UTC. Time now 2017-Jan-17 19:07 UTC.
Position N 40°49' W 073°47'.

Length 156 m; draft 5.2 m.

Type: . MMSI: 367349860.

Date/timePositionNaut miles runAvg speedWind from/ knotsBaromVisibWave heightAir tempDewpointWater temp
2017-Jan-17 06:13N 40°49' W 073°47'0 0.0
2017-Jan-16 17:07N 40°49' W 073°47'1 0.4
2017-Jan-16 14:31N 40°48' W 073°48'5 4.9
2017-Jan-16 13:32N 40°48' W 073°54'0 0.0
2017-Jan-16 12:32N 40°48' W 073°54'1 1.4
2017-Jan-16 11:33N 40°47' W 073°55'7 7.5
2017-Jan-16 10:33N 40°41' W 074°01'5 4.6
2017-Jan-16 09:33N 40°39' W 074°07'0 0.0
2017-Jan-16 08:32N 40°39' W 074°07'0 0.0
2017-Jan-16 07:32N 40°39' W 074°07'0 0.0
2017-Jan-16 06:32N 40°39' W 074°07'0 0.0
2017-Jan-16 05:32N 40°39' W 074°07'0 0.0
2017-Jan-16 04:32N 40°39' W 074°07'0 0.0
2017-Jan-16 03:32N 40°39' W 074°07'0 0.0
2017-Jan-16 02:32N 40°39' W 074°07'0 0.0
2017-Jan-16 01:32N 40°39' W 074°07'0 0.0
2017-Jan-16 00:29N 40°39' W 074°07'0 0.0
2017-Jan-15 23:32N 40°39' W 074°07'0 0.0
2017-Jan-15 22:32N 40°39' W 074°07'0 0.0
2017-Jan-15 21:32N 40°39' W 074°07'1 1.0
2017-Jan-15 20:32N 40°38' W 074°08'0 0.0
2017-Jan-15 19:32N 40°38' W 074°08'0 0.0
2017-Jan-15 18:29N 40°38' W 074°08'0 0.0
2017-Jan-15 17:32N 40°38' W 074°08'1 1.0
2017-Jan-15 16:29N 40°39' W 074°07'0 0.0
2017-Jan-15 15:32N 40°39' W 074°07'0 0.0
2017-Jan-15 14:29N 40°39' W 074°07'0 0.0
2017-Jan-15 13:32N 40°39' W 074°07'0 0.0
2017-Jan-15 12:32N 40°39' W 074°07'0 0.0
2017-Jan-15 11:32N 40°39' W 074°07'0 0.0
2017-Jan-15 10:32N 40°39' W 074°07'0 0.0
2017-Jan-15 09:33N 40°39' W 074°07'2 2.5
2017-Jan-15 08:33N 40°38' W 074°03'3 3.0
2017-Jan-15 07:32N 40°36' W 074°01'0 0.0
2017-Jan-15 06:29N 40°36' W 074°01'0 0.0
2017-Jan-15 05:32N 40°36' W 074°01'2 2.1
2017-Jan-15 04:33N 40°37' W 074°03'7 6.8
2017-Jan-15 03:33N 40°37' W 074°12'1 0.9
2017-Jan-15 02:28N 40°36' W 074°12'0 0.0
2017-Jan-15 01:28N 40°36' W 074°12'0 0.0
2017-Jan-15 00:28N 40°36' W 074°12'0 0.0
2017-Jan-14 23:28N 40°36' W 074°12'0 0.0
2017-Jan-14 22:28N 40°36' W 074°12'0 0.0
2017-Jan-14 21:10N 40°36' W 074°12'0 0.0
2017-Jan-14 20:28N 40°36' W 074°12'0 0.0
2017-Jan-14 19:28N 40°36' W 074°12'0 0.0
2017-Jan-14 18:28N 40°36' W 074°12'0 0.0
2017-Jan-14 17:28N 40°36' W 074°12'0 0.0
2017-Jan-14 16:28N 40°36' W 074°12'0 0.0
2017-Jan-14 15:28N 40°36' W 074°12'0 0.0
2017-Jan-14 14:10N 40°36' W 074°12'0 0.0
2017-Jan-14 13:28N 40°36' W 074°12'0 0.0
2017-Jan-14 12:28N 40°36' W 074°12'0 0.0
2017-Jan-14 11:28N 40°36' W 074°12'0 0.0
2017-Jan-14 10:28N 40°36' W 074°12'0 0.0
2017-Jan-14 09:28N 40°36' W 074°12'0 0.0
2017-Jan-14 08:28N 40°36' W 074°12'0 0.0
2017-Jan-14 07:33N 40°36' W 074°12'8 4.1
2017-Jan-14 05:33N 40°29' W 074°06'7 7.4
2017-Jan-14 04:33N 40°27' W 073°57'45 8.9
2017-Jan-13 23:28N 39°42' W 073°60'9 9.6
2017-Jan-13 22:29N 39°34' W 074°05'59 6.6
2017-Jan-13 13:33N 39°04' W 075°11'8 7.9
2017-Jan-13 12:33N 39°10' W 075°16'8 8.5
2017-Jan-13 11:33N 39°17' W 075°22'1110.8
2017-Jan-13 10:33N 39°25' W 075°31'10 9.8
2017-Jan-13 09:33N 39°35' W 075°35'1 0.6
2017-Jan-13 08:32N 39°35' W 075°36'0 0.0
2017-Jan-13 07:32N 39°35' W 075°36'0 0.0
2017-Jan-13 06:32N 39°35' W 075°36'0 0.0
2017-Jan-13 05:32N 39°35' W 075°36'0 0.0
2017-Jan-13 04:32N 39°35' W 075°36'0 0.0
2017-Jan-13 03:32N 39°35' W 075°36'0 0.0
2017-Jan-13 02:32N 39°35' W 075°36'0 0.0
2017-Jan-13 01:32N 39°35' W 075°36'0 0.0
2017-Jan-13 00:32N 39°35' W 075°36'0 0.0
2017-Jan-12 23:32N 39°35' W 075°36'0 0.0
2017-Jan-12 22:32N 39°35' W 075°36'0 0.0
2017-Jan-12 21:32N 39°35' W 075°36'0 0.0
2017-Jan-12 20:32N 39°35' W 075°36'0 0.0
2017-Jan-12 19:32N 39°35' W 075°36'0 0.0
2017-Jan-12 18:32N 39°35' W 075°36'0 0.0
2017-Jan-12 17:32N 39°35' W 075°36'0 0.0
2017-Jan-12 16:32N 39°35' W 075°36'0 0.0
2017-Jan-12 15:32N 39°35' W 075°36'0 0.0
2017-Jan-12 14:32N 39°35' W 075°36'0 0.0
2017-Jan-12 13:33N 39°35' W 075°36'3 3.0
2017-Jan-12 12:33N 39°33' W 075°33'0 0.1
2017-Jan-12 11:33N 39°33' W 075°33'0 0.2
2017-Jan-12 10:31N 39°33' W 075°33'0 0.0
2017-Jan-12 09:31N 39°33' W 075°33'0 0.0
2017-Jan-12 08:31N 39°33' W 075°33'0 0.0
2017-Jan-12 07:31N 39°33' W 075°33'0 0.0
2017-Jan-12 06:31N 39°33' W 075°33'0 0.0
2017-Jan-12 05:31N 39°33' W 075°33'0 0.2
2017-Jan-12 04:31N 39°33' W 075°33'0 0.0
2017-Jan-12 03:31N 39°33' W 075°33'0 0.0
2017-Jan-12 02:31N 39°33' W 075°33'0 0.0
2017-Jan-12 01:31N 39°33' W 075°33'0 0.2
2017-Jan-12 00:34N 39°33' W 075°33'8 7.6
2017-Jan-11 23:33N 39°26' W 075°32'9 9.0
2017-Jan-11 22:33N 39°19' W 075°24'9 8.6
2017-Jan-11 21:33N 39°12' W 075°17'9 8.9
2017-Jan-11 20:33N 39°05' W 075°11'9 8.8
2017-Jan-11 19:33N 38°57' W 075°06'9 8.2
2017-Jan-11 18:27N 38°49' W 075°01'7 8.0
2017-Jan-11 17:33N 38°50' W 074°52'8 8.1
2017-Jan-11 16:33N 38°56' W 074°45'8 8.2
2017-Jan-11 15:33N 39°02' W 074°38'40 7.7
2017-Jan-11 10:22N 39°33' W 074°06'6 7.5
2017-Jan-11 09:33N 39°39' W 074°02'47 7.8
2017-Jan-11 03:33N 40°25' W 073°54'8 8.4
2017-Jan-11 02:33N 40°32' W 074°01'9 9.0
2017-Jan-11 01:33N 40°41' W 074°02'8 8.0
2017-Jan-11 00:33N 40°47' W 073°56'1 0.3
2017-Jan-10 19:31N 40°48' W 073°54'0 0.0
2017-Jan-10 18:17N 40°48' W 073°54'0 0.0
2017-Jan-09 23:33N 40°48' W 073°54'5 5.2
2017-Jan-09 22:34N 40°44' W 073°58'6 6.4
2017-Jan-09 21:34N 40°39' W 074°03'7 7.2
2017-Jan-09 20:33N 40°32' W 074°01'7 7.1
2017-Jan-09 19:33N 40°28' W 073°53'45 7.5
2017-Jan-09 13:30N 39°43' W 074°01'9 9.1
2017-Jan-09 12:32N 39°35' W 074°05'59 6.6
2017-Jan-09 03:33N 39°05' W 075°11'1111.0
2017-Jan-09 02:34N 39°15' W 075°19'10 9.9
2017-Jan-09 01:33N 39°22' W 075°27'8 8.3
2017-Jan-09 00:33N 39°29' W 075°34'6 6.1
2017-Jan-08 23:34N 39°35' W 075°35'1 1.0
2017-Jan-08 22:32N 39°35' W 075°36'0 0.0
2017-Jan-08 21:32N 39°35' W 075°36'0 0.0
2017-Jan-08 20:32N 39°35' W 075°36'0 0.0
2017-Jan-08 19:32N 39°35' W 075°36'0 0.0
2017-Jan-08 18:32N 39°35' W 075°36'0 0.0
2017-Jan-08 17:32N 39°35' W 075°36'0 0.0
2017-Jan-08 16:32N 39°35' W 075°36'0 0.0
2017-Jan-08 15:32N 39°35' W 075°36'0 0.0
2017-Jan-08 14:32N 39°35' W 075°36'0 0.0
2017-Jan-08 13:32N 39°35' W 075°36'0 0.0
2017-Jan-08 12:32N 39°35' W 075°36'0 0.0
2017-Jan-08 11:32N 39°35' W 075°36'0 0.0
2017-Jan-08 10:32N 39°35' W 075°36'0 0.0
2017-Jan-08 09:32N 39°35' W 075°36'0 0.0
2017-Jan-08 08:32N 39°35' W 075°36'0 0.0
2017-Jan-08 07:32N 39°35' W 075°36'0 0.0
2017-Jan-08 06:32N 39°35' W 075°36'0 0.0
2017-Jan-08 05:32N 39°35' W 075°36'0 0.0
2017-Jan-08 04:32N 39°35' W 075°36'0 0.0
2017-Jan-08 03:32N 39°35' W 075°36'0 0.0
2017-Jan-08 02:29N 39°35' W 075°36'0 0.0
2017-Jan-08 01:32N 39°35' W 075°36'0 0.0
2017-Jan-08 00:32N 39°35' W 075°36'0 0.0
2017-Jan-07 23:32N 39°35' W 075°36'1 1.2
2017-Jan-07 22:33N 39°35' W 075°34'2 1.7
2017-Jan-07 21:31N 39°33' W 075°33'0 0.2
2017-Jan-07 20:31N 39°33' W 075°33'0 0.1
2017-Jan-07 19:31N 39°33' W 075°33'0 0.0
2017-Jan-07 18:31N 39°33' W 075°33'0 0.0
2017-Jan-07 17:33N 39°33' W 075°33'0 0.0
2017-Jan-07 16:33N 39°33' W 075°33'0 0.0
2017-Jan-07 15:33N 39°33' W 075°33'0 0.0
2017-Jan-07 14:33N 39°33' W 075°33'0 0.1
2017-Jan-07 13:33N 39°33' W 075°33'8 7.9
2017-Jan-07 12:33N 39°25' W 075°31'10 9.5
2017-Jan-07 11:33N 39°18' W 075°23'10 9.6
2017-Jan-07 10:33N 39°10' W 075°16'9 9.5
2017-Jan-07 09:33N 39°02' W 075°09'  
Track history (hours):
 
Tides and Currents Weather Stations Pressure Air Temp Water Temp Dewpoint Dewpoint Depression Visibility Wind Speed Wind Dir Waves Ship Positions

Linda Moran

Owner: MORAN TOWING CORP., NEW CANAAN, CT. More information available from US FCC via Universal Licensing System and Coast Guard Vessel Documentation Center.

Last reported at 2017-Jan-17 06:13 UTC. Time now 2017-Jan-17 19:07 UTC.
Position N 40°49' W 073°47'.

Length 156 m; draft 5.2 m.

Type: . MMSI: 367349860.

Date/timePositionNaut miles runAvg speedWind from/ knotsBaromVisibWave heightAir tempDewpointWater temp
2017-Jan-17 06:13N 40°49' W 073°47'0 0.0
2017-Jan-16 17:07N 40°49' W 073°47'1 0.4
2017-Jan-16 14:31N 40°48' W 073°48'5 4.9
2017-Jan-16 13:32N 40°48' W 073°54'0 0.0
2017-Jan-16 12:32N 40°48' W 073°54'1 1.4
2017-Jan-16 11:33N 40°47' W 073°55'7 7.5
2017-Jan-16 10:33N 40°41' W 074°01'5 4.6
2017-Jan-16 09:33N 40°39' W 074°07'0 0.0
2017-Jan-16 08:32N 40°39' W 074°07'0 0.0
2017-Jan-16 07:32N 40°39' W 074°07'0 0.0
2017-Jan-16 06:32N 40°39' W 074°07'0 0.0
2017-Jan-16 05:32N 40°39' W 074°07'0 0.0
2017-Jan-16 04:32N 40°39' W 074°07'0 0.0
2017-Jan-16 03:32N 40°39' W 074°07'0 0.0
2017-Jan-16 02:32N 40°39' W 074°07'0 0.0
2017-Jan-16 01:32N 40°39' W 074°07'0 0.0
2017-Jan-16 00:29N 40°39' W 074°07'0 0.0
2017-Jan-15 23:32N 40°39' W 074°07'0 0.0
2017-Jan-15 22:32N 40°39' W 074°07'0 0.0
2017-Jan-15 21:32N 40°39' W 074°07'1 1.0
2017-Jan-15 20:32N 40°38' W 074°08'0 0.0
2017-Jan-15 19:32N 40°38' W 074°08'0 0.0
2017-Jan-15 18:29N 40°38' W 074°08'0 0.0
2017-Jan-15 17:32N 40°38' W 074°08'1 1.0
2017-Jan-15 16:29N 40°39' W 074°07'0 0.0
2017-Jan-15 15:32N 40°39' W 074°07'0 0.0
2017-Jan-15 14:29N 40°39' W 074°07'0 0.0
2017-Jan-15 13:32N 40°39' W 074°07'0 0.0
2017-Jan-15 12:32N 40°39' W 074°07'0 0.0
2017-Jan-15 11:32N 40°39' W 074°07'0 0.0
2017-Jan-15 10:32N 40°39' W 074°07'0 0.0
2017-Jan-15 09:33N 40°39' W 074°07'2 2.5
2017-Jan-15 08:33N 40°38' W 074°03'3 3.0
2017-Jan-15 07:32N 40°36' W 074°01'0 0.0
2017-Jan-15 06:29N 40°36' W 074°01'0 0.0
2017-Jan-15 05:32N 40°36' W 074°01'2 2.1
2017-Jan-15 04:33N 40°37' W 074°03'7 6.8
2017-Jan-15 03:33N 40°37' W 074°12'1 0.9
2017-Jan-15 02:28N 40°36' W 074°12'0 0.0
2017-Jan-15 01:28N 40°36' W 074°12'0 0.0
2017-Jan-15 00:28N 40°36' W 074°12'0 0.0
2017-Jan-14 23:28N 40°36' W 074°12'0 0.0
2017-Jan-14 22:28N 40°36' W 074°12'0 0.0
2017-Jan-14 21:10N 40°36' W 074°12'0 0.0
2017-Jan-14 20:28N 40°36' W 074°12'0 0.0
2017-Jan-14 19:28N 40°36' W 074°12'0 0.0
2017-Jan-14 18:28N 40°36' W 074°12'0 0.0
2017-Jan-14 17:28N 40°36' W 074°12'0 0.0
2017-Jan-14 16:28N 40°36' W 074°12'0 0.0
2017-Jan-14 15:28N 40°36' W 074°12'0 0.0
2017-Jan-14 14:10N 40°36' W 074°12'0 0.0
2017-Jan-14 13:28N 40°36' W 074°12'0 0.0
2017-Jan-14 12:28N 40°36' W 074°12'0 0.0
2017-Jan-14 11:28N 40°36' W 074°12'0 0.0
2017-Jan-14 10:28N 40°36' W 074°12'0 0.0
2017-Jan-14 09:28N 40°36' W 074°12'0 0.0
2017-Jan-14 08:28N 40°36' W 074°12'0 0.0
2017-Jan-14 07:33N 40°36' W 074°12'8 4.1
2017-Jan-14 05:33N 40°29' W 074°06'7 7.4
2017-Jan-14 04:33N 40°27' W 073°57'45 8.9
2017-Jan-13 23:28N 39°42' W 073°60'9 9.6
2017-Jan-13 22:29N 39°34' W 074°05'59 6.6
2017-Jan-13 13:33N 39°04' W 075°11'8 7.9
2017-Jan-13 12:33N 39°10' W 075°16'8 8.5
2017-Jan-13 11:33N 39°17' W 075°22'1110.8
2017-Jan-13 10:33N 39°25' W 075°31'10 9.8
2017-Jan-13 09:33N 39°35' W 075°35'1 0.6
2017-Jan-13 08:32N 39°35' W 075°36'0 0.0
2017-Jan-13 07:32N 39°35' W 075°36'0 0.0
2017-Jan-13 06:32N 39°35' W 075°36'0 0.0
2017-Jan-13 05:32N 39°35' W 075°36'0 0.0
2017-Jan-13 04:32N 39°35' W 075°36'0 0.0
2017-Jan-13 03:32N 39°35' W 075°36'0 0.0
2017-Jan-13 02:32N 39°35' W 075°36'0 0.0
2017-Jan-13 01:32N 39°35' W 075°36'0 0.0
2017-Jan-13 00:32N 39°35' W 075°36'0 0.0
2017-Jan-12 23:32N 39°35' W 075°36'0 0.0
2017-Jan-12 22:32N 39°35' W 075°36'0 0.0
2017-Jan-12 21:32N 39°35' W 075°36'0 0.0
2017-Jan-12 20:32N 39°35' W 075°36'0 0.0
2017-Jan-12 19:32N 39°35' W 075°36'0 0.0
2017-Jan-12 18:32N 39°35' W 075°36'0 0.0
2017-Jan-12 17:32N 39°35' W 075°36'0 0.0
2017-Jan-12 16:32N 39°35' W 075°36'0 0.0
2017-Jan-12 15:32N 39°35' W 075°36'0 0.0
2017-Jan-12 14:32N 39°35' W 075°36'0 0.0
2017-Jan-12 13:33N 39°35' W 075°36'3 3.0
2017-Jan-12 12:33N 39°33' W 075°33'0 0.1
2017-Jan-12 11:33N 39°33' W 075°33'0 0.2
2017-Jan-12 10:31N 39°33' W 075°33'0 0.0
2017-Jan-12 09:31N 39°33' W 075°33'0 0.0
2017-Jan-12 08:31N 39°33' W 075°33'0 0.0
2017-Jan-12 07:31N 39°33' W 075°33'0 0.0
2017-Jan-12 06:31N 39°33' W 075°33'0 0.0
2017-Jan-12 05:31N 39°33' W 075°33'0 0.2
2017-Jan-12 04:31N 39°33' W 075°33'0 0.0
2017-Jan-12 03:31N 39°33' W 075°33'0 0.0
2017-Jan-12 02:31N 39°33' W 075°33'0 0.0
2017-Jan-12 01:31N 39°33' W 075°33'0 0.2
2017-Jan-12 00:34N 39°33' W 075°33'8 7.6
2017-Jan-11 23:33N 39°26' W 075°32'9 9.0
2017-Jan-11 22:33N 39°19' W 075°24'9 8.6
2017-Jan-11 21:33N 39°12' W 075°17'9 8.9
2017-Jan-11 20:33N 39°05' W 075°11'9 8.8
2017-Jan-11 19:33N 38°57' W 075°06'9 8.2
2017-Jan-11 18:27N 38°49' W 075°01'7 8.0
2017-Jan-11 17:33N 38°50' W 074°52'8 8.1
2017-Jan-11 16:33N 38°56' W 074°45'8 8.2
2017-Jan-11 15:33N 39°02' W 074°38'40 7.7
2017-Jan-11 10:22N 39°33' W 074°06'6 7.5
2017-Jan-11 09:33N 39°39' W 074°02'47 7.8
2017-Jan-11 03:33N 40°25' W 073°54'8 8.4
2017-Jan-11 02:33N 40°32' W 074°01'9 9.0
2017-Jan-11 01:33N 40°41' W 074°02'8 8.0
2017-Jan-11 00:33N 40°47' W 073°56'1 0.3
2017-Jan-10 19:31N 40°48' W 073°54'0 0.0
2017-Jan-10 18:17N 40°48' W 073°54'0 0.0
2017-Jan-09 23:33N 40°48' W 073°54'5 5.2
2017-Jan-09 22:34N 40°44' W 073°58'6 6.4
2017-Jan-09 21:34N 40°39' W 074°03'7 7.2
2017-Jan-09 20:33N 40°32' W 074°01'7 7.1
2017-Jan-09 19:33N 40°28' W 073°53'45 7.5
2017-Jan-09 13:30N 39°43' W 074°01'9 9.1
2017-Jan-09 12:32N 39°35' W 074°05'59 6.6
2017-Jan-09 03:33N 39°05' W 075°11'1111.0
2017-Jan-09 02:34N 39°15' W 075°19'10 9.9
2017-Jan-09 01:33N 39°22' W 075°27'8 8.3
2017-Jan-09 00:33N 39°29' W 075°34'6 6.1
2017-Jan-08 23:34N 39°35' W 075°35'1 1.0
2017-Jan-08 22:32N 39°35' W 075°36'0 0.0
2017-Jan-08 21:32N 39°35' W 075°36'0 0.0
2017-Jan-08 20:32N 39°35' W 075°36'0 0.0
2017-Jan-08 19:32N 39°35' W 075°36'0 0.0
2017-Jan-08 18:32N 39°35' W 075°36'0 0.0
2017-Jan-08 17:32N 39°35' W 075°36'0 0.0
2017-Jan-08 16:32N 39°35' W 075°36'0 0.0
2017-Jan-08 15:32N 39°35' W 075°36'0 0.0
2017-Jan-08 14:32N 39°35' W 075°36'0 0.0
2017-Jan-08 13:32N 39°35' W 075°36'0 0.0
2017-Jan-08 12:32N 39°35' W 075°36'0 0.0
2017-Jan-08 11:32N 39°35' W 075°36'0 0.0
2017-Jan-08 10:32N 39°35' W 075°36'0 0.0
2017-Jan-08 09:32N 39°35' W 075°36'0 0.0
2017-Jan-08 08:32N 39°35' W 075°36'0 0.0
2017-Jan-08 07:32N 39°35' W 075°36'0 0.0
2017-Jan-08 06:32N 39°35' W 075°36'0 0.0
2017-Jan-08 05:32N 39°35' W 075°36'0 0.0
2017-Jan-08 04:32N 39°35' W 075°36'0 0.0
2017-Jan-08 03:32N 39°35' W 075°36'0 0.0
2017-Jan-08 02:29N 39°35' W 075°36'0 0.0
2017-Jan-08 01:32N 39°35' W 075°36'0 0.0
2017-Jan-08 00:32N 39°35' W 075°36'0 0.0
2017-Jan-07 23:32N 39°35' W 075°36'1 1.2
2017-Jan-07 22:33N 39°35' W 075°34'2 1.7
2017-Jan-07 21:31N 39°33' W 075°33'0 0.2
2017-Jan-07 20:31N 39°33' W 075°33'0 0.1
2017-Jan-07 19:31N 39°33' W 075°33'0 0.0
2017-Jan-07 18:31N 39°33' W 075°33'0 0.0
2017-Jan-07 17:33N 39°33' W 075°33'0 0.0
2017-Jan-07 16:33N 39°33' W 075°33'0 0.0
2017-Jan-07 15:33N 39°33' W 075°33'0 0.0
2017-Jan-07 14:33N 39°33' W 075°33'0 0.1
2017-Jan-07 13:33N 39°33' W 075°33'8 7.9
2017-Jan-07 12:33N 39°25' W 075°31'10 9.5
2017-Jan-07 11:33N 39°18' W 075°23'10 9.6
2017-Jan-07 10:33N 39°10' W 075°16'9 9.5
2017-Jan-07 09:33N 39°02' W 075°09'  

Dump ship's entire track history